Time;durP1;ratioP1;P1;durP2;ratioP2;P2;SDS_P1;SDS_P2;PMS_P1;PMS_P2;Temp;Humidity;BMP_temperature;BMP_pressure;BME280_temperature;BME280_humidity;BME280_pressure;Samples;Min_cycle;Max_cycle;Signal;HPM_P1;HPM_P2
2022/05/12 00:00:01;;;;;;;10.53;8.53;;;13.10;99.90;13.20;96904.00;;;;5068457;28;20196;-68
2022/05/12 00:02:51;;;;;;;8.67;7.97;;;12.90;99.90;13.10;96902.00;;;;5069663;28;20211;-69
2022/05/12 00:05:39;;;;;;;10.43;7.80;;;12.70;99.90;13.30;96905.00;;;;5067531;28;20597;-69
2022/05/12 00:08:29;;;;;;;10.27;7.87;;;12.70;99.90;13.40;96897.00;;;;5068965;28;20581;-70
2022/05/12 00:11:18;;;;;;;10.50;8.67;;;12.70;99.90;13.50;96911.00;;;;5068668;28;20220;-70
2022/05/12 00:14:07;;;;;;;12.70;8.27;;;12.70;99.90;13.50;96906.00;;;;5069541;28;20228;-69
2022/05/12 00:16:56;;;;;;;11.07;8.63;;;12.70;99.90;13.00;96897.00;;;;5068930;28;20204;-70
2022/05/12 00:19:46;;;;;;;11.23;8.30;;;12.70;99.90;13.00;96898.00;;;;5057108;28;20212;-70
2022/05/12 00:22:35;;;;;;;9.83;8.30;;;12.60;99.90;12.80;96898.00;;;;5058875;28;20204;-69
2022/05/12 00:25:25;;;;;;;9.07;8.17;;;12.50;99.90;12.80;96896.00;;;;5063310;28;20895;-68
2022/05/12 00:28:14;;;;;;;19.70;10.40;;;12.40;99.90;12.90;96892.00;;;;5056120;28;20192;-68
2022/05/12 00:31:03;;;;;;;14.37;9.67;;;12.40;99.90;12.90;96901.00;;;;5069154;28;20250;-69
2022/05/12 00:33:52;;;;;;;11.03;7.23;;;12.40;99.90;12.40;96886.00;;;;5062250;28;20235;-69
2022/05/12 00:36:41;;;;;;;10.77;9.43;;;12.30;99.90;12.80;96893.00;;;;5067080;28;20215;-69
2022/05/12 00:39:30;;;;;;;12.17;9.63;;;12.20;99.90;13.10;96890.00;;;;5069228;28;20694;-68
2022/05/12 00:42:20;;;;;;;10.80;9.70;;;12.20;99.90;13.30;96895.00;;;;5063488;28;20230;-69
2022/05/12 00:45:10;;;;;;;15.07;8.97;;;12.10;99.90;13.40;96896.00;;;;5070225;28;20200;-69
2022/05/12 00:48:00;;;;;;;10.70;8.80;;;12.50;99.90;13.00;96891.00;;;;5071798;28;20663;-69
2022/05/12 00:50:49;;;;;;;9.07;7.30;;;12.40;99.90;12.30;96886.00;;;;5072502;28;20224;-68
2022/05/12 00:53:39;;;;;;;10.03;8.77;;;12.30;99.90;12.40;96883.00;;;;5071643;28;20226;-69
2022/05/12 00:56:29;;;;;;;9.17;8.20;;;12.20;99.90;12.70;96883.00;;;;5071675;28;20204;-69
2022/05/12 00:59:26;;;;;;;13.40;9.40;;;12.10;99.90;12.90;96892.00;;;;5072356;28;20207;-69
2022/05/12 01:02:19;;;;;;;9.43;8.27;;;12.10;99.90;13.10;96887.00;;;;5070832;28;20224;-69
2022/05/12 01:05:09;;;;;;;10.13;8.60;;;12.20;99.90;13.30;96890.00;;;;5071814;28;20308;-69
2022/05/12 01:08:00;;;;;;;10.40;8.67;;;12.30;99.90;13.30;96892.00;;;;5069879;28;20671;-70
2022/05/12 01:10:54;;;;;;;10.87;7.97;;;12.30;99.90;13.00;96889.00;;;;5057400;28;20250;-68
2022/05/12 01:13:53;;;;;;;11.47;8.07;;;12.30;99.90;13.00;96891.00;;;;5058560;28;20224;-69
2022/05/12 01:16:48;;;;;;;10.40;8.57;;;12.30;99.90;13.00;96905.00;;;;5070212;28;20231;-69
2022/05/12 01:19:40;;;;;;;9.73;7.97;;;12.30;99.90;13.00;96900.00;;;;5061430;28;20944;-69
2022/05/12 01:22:44;;;;;;;10.97;8.57;;;12.30;99.90;12.90;96897.00;;;;5060078;28;20604;-69
2022/05/12 01:25:35;;;;;;;10.80;8.47;;;12.20;99.90;13.00;96899.00;;;;5064561;28;20206;-69
2022/05/12 01:28:24;;;;;;;9.23;7.43;;;12.20;99.90;13.20;96902.00;;;;5066159;28;20703;-69
2022/05/12 01:31:20;;;;;;;13.03;9.20;;;12.30;99.90;13.00;96899.00;;;;5063101;28;20247;-70
2022/05/12 01:34:12;;;;;;;9.17;8.27;;;12.30;99.90;12.90;96897.00;;;;5061138;28;20228;-69
2022/05/12 01:37:01;;;;;;;8.17;7.33;;;12.30;99.90;12.90;96899.00;;;;5064632;28;20212;-70
2022/05/12 01:39:49;;;;;;;10.80;8.30;;;12.20;99.90;13.10;96910.00;;;;5063218;28;20203;-69
2022/05/12 01:42:40;;;;;;;12.13;8.30;;;12.30;99.90;13.10;96916.00;;;;5063352;28;20204;-69
2022/05/12 01:45:29;;;;;;;9.60;8.40;;;12.30;99.90;12.80;96901.00;;;;5063646;28;20211;-69
2022/05/12 01:48:18;;;;;;;10.63;9.53;;;12.20;99.90;12.60;96911.00;;;;5059840;28;20208;-70
2022/05/12 01:51:08;;;;;;;9.70;8.80;;;12.50;99.90;12.70;96905.00;;;;5061066;28;20216;-70
2022/05/12 01:53:56;;;;;;;10.47;8.63;;;12.20;99.90;12.40;96904.00;;;;5065971;28;20230;-69
2022/05/12 01:56:45;;;;;;;13.77;9.43;;;12.10;99.90;12.40;96905.00;;;;5060653;28;20200;-69
2022/05/12 01:59:34;;;;;;;8.87;7.63;;;12.00;99.90;12.40;96899.00;;;;5052975;28;20308;-70
2022/05/12 02:02:24;;;;;;;10.87;8.63;;;11.90;99.90;12.20;96906.00;;;;5057522;28;20226;-70
2022/05/12 02:05:14;;;;;;;13.67;9.03;;;11.80;99.90;12.20;96900.00;;;;5070828;28;20570;-69
2022/05/12 02:08:06;;;;;;;10.50;9.50;;;11.80;99.90;12.50;96903.00;;;;5068772;28;20208;-69
2022/05/12 02:10:55;;;;;;;9.17;8.03;;;11.80;99.90;12.20;96906.00;;;;5070437;28;20227;-69
2022/05/12 02:13:44;;;;;;;11.60;8.93;;;11.80;99.90;12.10;96909.00;;;;5071044;28;20207;-69
2022/05/12 02:16:35;;;;;;;11.67;9.63;;;11.70;99.90;12.40;96905.00;;;;5068768;28;20204;-69
2022/05/12 02:19:23;;;;;;;13.60;11.00;;;11.80;99.90;12.30;96903.00;;;;5070597;28;20204;-69
2022/05/12 02:22:12;;;;;;;12.50;10.60;;;11.80;99.90;12.30;96903.00;;;;5065374;28;20235;-70
2022/05/12 02:25:01;;;;;;;9.73;8.73;;;11.80;99.90;12.00;96912.00;;;;5055054;28;20205;-69
2022/05/12 02:27:51;;;;;;;9.67;7.83;;;11.70;99.90;11.70;96900.00;;;;5065526;28;20577;-68
2022/05/12 02:30:40;;;;;;;9.30;8.23;;;11.60;99.90;11.40;96913.00;;;;5070598;28;20228;-69
2022/05/12 02:33:31;;;;;;;13.37;8.60;;;11.50;99.90;11.70;96905.00;;;;5063051;28;20196;-69
2022/05/12 02:36:20;;;;;;;9.87;8.57;;;11.40;99.90;11.80;96916.00;;;;5068383;28;20697;-69
2022/05/12 02:39:09;;;;;;;11.03;8.37;;;11.40;99.90;11.90;96909.00;;;;5070458;28;20223;-69
2022/05/12 02:41:58;;;;;;;11.97;10.70;;;11.40;99.90;12.00;96923.00;;;;5070323;28;20618;-69
2022/05/12 02:44:46;;;;;;;12.07;9.43;;;11.40;99.90;12.30;96909.00;;;;5059035;28;20207;-70
2022/05/12 02:47:35;;;;;;;10.50;9.40;;;11.50;99.90;12.30;96917.00;;;;5069865;28;20663;-69
2022/05/12 02:50:26;;;;;;;12.57;10.23;;;11.60;99.90;12.00;96929.00;;;;5069264;28;20222;-68
2022/05/12 02:53:15;;;;;;;9.40;8.27;;;11.60;99.90;11.80;96928.00;;;;5069220;28;20208;-69
2022/05/12 02:56:05;;;;;;;10.83;8.77;;;11.50;99.90;11.70;96928.00;;;;5069824;28;20239;-69
2022/05/12 02:58:54;;;;;;;11.33;8.63;;;11.40;99.90;12.20;96933.00;;;;5068681;28;20211;-69
2022/05/12 03:01:43;;;;;;;12.23;8.30;;;11.50;99.90;12.50;96917.00;;;;5070455;28;20606;-69
2022/05/12 03:04:33;;;;;;;10.53;9.43;;;11.50;99.90;12.20;96932.00;;;;5059649;28;20219;-70
2022/05/12 03:07:23;;;;;;;10.57;8.77;;;11.50;99.90;12.10;96927.00;;;;5068692;28;20215;-70
2022/05/12 03:10:13;;;;;;;9.83;8.70;;;11.50;99.90;12.20;96920.00;;;;5070136;28;20204;-70
2022/05/12 03:13:02;;;;;;;10.50;9.40;;;11.50;99.90;12.60;96920.00;;;;5069326;28;20583;-70
2022/05/12 03:15:51;;;;;;;13.27;10.80;;;11.60;99.90;12.70;96929.00;;;;5064691;28;20231;-69
2022/05/12 03:18:40;;;;;;;14.40;10.23;;;11.70;99.90;12.70;96930.00;;;;5051108;28;20573;-70
2022/05/12 03:21:29;;;;;;;12.47;8.50;;;11.80;99.90;12.10;96927.00;;;;5059826;28;20231;-70
2022/05/12 03:24:19;;;;;;;8.93;7.97;;;11.70;99.90;12.50;96931.00;;;;5062280;28;20208;-70
2022/05/12 03:27:09;;;;;;;11.07;9.83;;;11.80;99.90;12.80;96931.00;;;;5064011;28;20204;-70
2022/05/12 03:29:58;;;;;;;11.27;9.17;;;11.80;99.90;12.50;96930.00;;;;5057191;28;20195;-70
2022/05/12 03:32:47;;;;;;;10.00;8.70;;;11.80;99.90;12.20;96937.00;;;;5082808;22;20231;-87
2022/05/12 03:35:36;;;;;;;9.70;8.20;;;11.70;99.90;12.00;96940.00;;;;5081057;28;20222;-86
2022/05/12 03:38:26;;;;;;;10.27;8.77;;;11.60;99.90;11.90;96947.00;;;;5107204;28;20206;-85
2022/05/12 03:41:16;;;;;;;10.53;9.43;;;11.60;99.90;12.20;96939.00;;;;5107132;28;20219;-86
2022/05/12 03:47:12;;;;;;;9.90;8.57;;;11.60;99.90;12.50;96939.00;;;;5097153;22;20261;-65
2022/05/12 03:50:05;;;;;;;10.63;8.43;;;11.60;99.90;12.30;96951.00;;;;5060833;28;20209;-65
2022/05/12 03:52:55;;;;;;;10.47;7.77;;;11.60;99.90;12.00;96953.00;;;;5058653;28;20226;-66
2022/05/12 03:55:44;;;;;;;12.10;9.13;;;11.60;99.90;12.20;96949.00;;;;5069016;28;20238;-66
2022/05/12 03:58:35;;;;;;;9.53;8.57;;;11.60;99.90;12.30;96953.00;;;;5066639;28;20184;-66
2022/05/12 04:01:24;;;;;;;12.03;9.47;;;11.50;99.90;12.40;96956.00;;;;5055204;28;20224;-67
2022/05/12 04:04:13;;;;;;;11.83;9.07;;;11.60;99.90;12.50;96959.00;;;;5057603;28;20196;-67
2022/05/12 04:07:03;;;;;;;9.60;8.67;;;11.70;99.90;12.40;96957.00;;;;5067186;28;20715;-67
2022/05/12 04:09:52;;;;;;;10.50;8.93;;;11.70;99.90;12.30;96963.00;;;;5062953;28;20195;-68
2022/05/12 04:12:42;;;;;;;10.53;8.97;;;11.70;99.90;12.30;96963.00;;;;5049945;28;20224;-70
2022/05/12 04:15:32;;;;;;;13.73;9.43;;;11.70;99.90;12.30;96963.00;;;;5057138;28;20698;-70
2022/05/12 04:18:21;;;;;;;9.30;8.13;;;11.70;99.90;11.70;96964.00;;;;5067429;28;20196;-70
2022/05/12 04:21:10;;;;;;;12.33;8.30;;;11.60;99.90;11.80;96973.00;;;;5065435;28;20200;-68
2022/05/12 04:23:59;;;;;;;11.33;9.80;;;11.50;99.90;12.00;96980.00;;;;5065668;28;20208;-68
2022/05/12 04:26:47;;;;;;;11.53;9.90;;;11.50;99.90;12.10;96974.00;;;;5059207;28;20207;-68
2022/05/12 04:29:38;;;;;;;11.47;9.53;;;11.50;99.90;12.40;96970.00;;;;5067487;28;20593;-68
2022/05/12 04:32:28;;;;;;;10.23;9.23;;;11.60;99.90;12.10;96987.00;;;;5062108;28;20225;-69
2022/05/12 04:35:16;;;;;;;10.40;9.03;;;11.60;99.90;12.10;96983.00;;;;5071042;28;20227;-69
2022/05/12 04:38:05;;;;;;;13.83;9.37;;;11.60;99.90;12.30;96980.00;;;;5070110;28;20203;-67
2022/05/12 04:40:54;;;;;;;11.73;8.90;;;11.70;99.90;12.30;96975.00;;;;5066995;28;20215;-71
2022/05/12 04:43:43;;;;;;;11.37;8.73;;;11.70;99.90;12.70;96976.00;;;;5062879;28;20203;-70
2022/05/12 04:46:34;;;;;;;11.07;9.27;;;11.90;99.90;13.00;96989.00;;;;5054864;28;20212;-70
2022/05/12 04:49:26;;;;;;;10.87;9.77;;;12.00;99.90;13.20;96976.00;;;;5069281;28;20211;-70
2022/05/12 04:52:15;;;;;;;12.17;9.10;;;12.10;99.90;13.50;96985.00;;;;5062044;28;20229;-69
2022/05/12 04:55:04;;;;;;;9.83;8.47;;;12.30;99.90;13.20;96978.00;;;;5061375;28;20197;-71
2022/05/12 04:57:56;;;;;;;13.70;9.43;;;12.40;99.90;13.40;96979.00;;;;5061008;28;20638;-68
2022/05/12 05:00:45;;;;;;;11.40;8.63;;;12.60;99.90;13.60;96974.00;;;;5070352;28;20204;-70
2022/05/12 05:03:34;;;;;;;10.50;9.50;;;12.70;99.90;13.80;96982.00;;;;5070747;28;20230;-72
2022/05/12 05:06:24;;;;;;;10.87;8.97;;;12.90;99.90;14.10;96986.00;;;;5070645;28;20753;-70
2022/05/12 05:09:13;;;;;;;9.53;8.33;;;13.10;99.90;14.20;96977.00;;;;5067925;28;20196;-68
2022/05/12 05:12:02;;;;;;;11.93;9.70;;;13.30;99.90;14.30;96987.00;;;;5063589;28;20231;-68
2022/05/12 05:14:51;;;;;;;14.53;10.60;;;13.40;99.90;14.10;96989.00;;;;5068047;28;20203;-72
2022/05/12 05:17:40;;;;;;;28.20;18.87;;;13.50;99.90;14.40;96974.00;;;;5070555;28;20208;-70
2022/05/12 05:20:32;;;;;;;20.70;14.77;;;13.60;99.90;14.20;96985.00;;;;5061103;28;20629;-73
2022/05/12 05:23:22;;;;;;;21.20;16.83;;;13.60;99.90;14.50;96980.00;;;;5059331;28;20303;-69
2022/05/12 05:26:11;;;;;;;23.10;15.77;;;13.70;99.90;14.90;96986.00;;;;5060468;28;20772;-67
2022/05/12 05:29:01;;;;;;;16.17;11.53;;;13.90;99.90;15.10;96988.00;;;;5055667;28;20705;-69
2022/05/12 05:31:50;;;;;;;8.97;8.07;;;14.00;99.90;15.00;96999.00;;;;5054562;28;20858;-69
2022/05/12 05:34:39;;;;;;;9.47;7.83;;;14.10;99.90;14.70;96983.00;;;;5063088;28;20598;-74
2022/05/12 05:37:27;;;;;;;9.77;8.77;;;14.20;99.90;15.20;96981.00;;;;5064085;28;20231;-72
2022/05/12 05:40:22;;;;;;;8.53;7.70;;;14.30;99.90;15.30;96991.00;;;;5059404;28;20208;-72
2022/05/12 05:43:11;;;;;;;13.13;8.53;;;14.40;99.90;15.60;96988.00;;;;5060980;28;20228;-71
2022/05/12 05:45:59;;;;;;;9.17;7.57;;;14.60;99.90;15.70;96990.00;;;;5058239;28;20223;-72
2022/05/12 05:48:50;;;;;;;11.37;8.53;;;14.70;99.90;16.00;96987.00;;;;5052419;28;20192;-70
2022/05/12 05:54:45;;;;;;;12.23;7.13;;;15.20;99.90;16.80;96998.00;;;;5064345;28;20200;-70
2022/05/12 05:57:36;;;;;;;11.97;8.90;;;15.40;99.90;17.10;97000.00;;;;5067170;28;20694;-70
2022/05/12 06:00:25;;;;;;;10.20;7.83;;;15.60;99.90;17.20;96993.00;;;;5059611;28;20201;-70
2022/05/12 06:03:14;;;;;;;8.63;7.00;;;15.80;99.90;17.30;96989.00;;;;5066441;28;20215;-71
2022/05/12 06:06:05;;;;;;;10.63;8.47;;;16.00;99.90;17.70;96991.00;;;;5069661;28;20203;-71
2022/05/12 06:08:54;;;;;;;9.50;8.00;;;16.20;99.90;17.70;96996.00;;;;5069483;28;20580;-70
2022/05/12 06:11:44;;;;;;;9.57;8.23;;;16.40;99.90;17.60;96986.00;;;;5062876;28;20581;-71
2022/05/12 06:14:34;;;;;;;11.50;7.50;;;16.60;99.90;17.80;96996.00;;;;5060447;28;20203;-70
2022/05/12 06:17:23;;;;;;;9.67;7.60;;;16.70;99.90;18.10;96993.00;;;;5056329;28;20569;-69
2022/05/12 06:20:13;;;;;;;10.03;7.23;;;16.90;99.90;18.40;96992.00;;;;5055045;28;20218;-67
2022/05/12 06:23:02;;;;;;;10.47;6.93;;;17.00;99.90;18.80;96988.00;;;;5062951;28;20227;-72
2022/05/12 06:25:51;;;;;;;7.83;6.93;;;17.30;99.90;19.30;97000.00;;;;5069462;28;20207;-72
2022/05/12 06:28:40;;;;;;;7.50;6.60;;;17.50;99.90;19.50;97003.00;;;;5069523;28;20200;-70
2022/05/12 06:31:32;;;;;;;12.93;8.93;;;17.80;99.90;19.60;96997.00;;;;5067041;28;20223;-68
2022/05/12 06:34:21;;;;;;;10.83;7.00;;;18.00;99.90;19.80;96997.00;;;;5066853;28;20200;-70
2022/05/12 06:37:11;;;;;;;20.27;8.43;;;18.30;99.90;20.10;96988.00;;;;5064713;28;20220;-70
2022/05/12 06:40:00;;;;;;;10.87;6.83;;;18.50;99.90;20.10;96987.00;;;;5068274;28;20192;-70
2022/05/12 06:42:49;;;;;;;8.50;6.27;;;18.70;99.90;20.20;96990.00;;;;5068665;28;20230;-69
2022/05/12 06:45:37;;;;;;;8.97;7.63;;;18.80;99.90;20.30;96987.00;;;;5069812;28;20595;-69
2022/05/12 06:48:28;;;;;;;8.47;6.90;;;19.00;99.90;20.20;96986.00;;;;5068452;28;20207;-70
2022/05/12 06:51:18;;;;;;;17.60;7.53;;;19.10;99.90;20.50;96988.00;;;;5058722;28;20921;-70
2022/05/12 06:54:09;;;;;;;10.13;7.50;;;19.20;99.90;20.90;96985.00;;;;5068436;28;20729;-69
2022/05/12 06:56:58;;;;;;;11.87;7.00;;;19.40;99.90;21.00;96986.00;;;;5061717;28;20721;-68
2022/05/12 06:59:46;;;;;;;12.40;7.53;;;19.50;99.90;21.10;96991.00;;;;5068637;28;20218;-71
2022/05/12 07:02:35;;;;;;;11.03;6.90;;;19.70;99.90;21.30;96985.00;;;;5069781;28;20216;-64
2022/05/12 07:05:27;;;;;;;18.67;10.97;;;19.90;99.90;21.70;96992.00;;;;5068168;28;20228;-63
2022/05/12 07:08:17;;;;;;;16.80;8.87;;;20.10;99.90;21.20;96985.00;;;;5067692;28;20698;-69
2022/05/12 07:11:06;;;;;;;14.53;7.00;;;20.20;99.90;21.80;96987.00;;;;5054506;28;20664;-68
2022/05/12 07:13:55;;;;;;;11.40;6.80;;;20.30;99.90;21.90;96983.00;;;;5062774;28;20648;-69
2022/05/12 07:16:44;;;;;;;10.73;6.97;;;20.50;99.90;22.20;96982.00;;;;5059726;28;20224;-68
2022/05/12 07:19:33;;;;;;;11.23;6.37;;;20.70;99.90;22.20;96984.00;;;;5062982;28;20222;-68
2022/05/12 07:28:38;;;;;;;6.77;6.07;;;21.20;99.90;22.70;96978.00;;;;5068919;28;20207;-71
2022/05/12 07:31:27;;;;;;;10.03;6.77;;;21.30;99.90;22.90;96982.00;;;;5066719;28;20228;-71
2022/05/12 07:34:16;;;;;;;9.33;6.97;;;21.50;99.90;23.10;96978.00;;;;5054960;28;20200;-71
2022/05/12 07:37:05;;;;;;;8.30;6.17;;;21.70;99.90;23.50;96969.00;;;;5067556;28;20247;-70
2022/05/12 07:39:55;;;;;;;9.20;5.67;;;21.80;99.90;23.80;96979.00;;;;5067405;28;20204;-70
2022/05/12 07:42:44;;;;;;;9.07;6.63;;;22.00;99.90;24.10;96973.00;;;;5067851;28;20220;-71
2022/05/12 07:45:33;;;;;;;8.00;6.40;;;22.30;99.90;24.00;96982.00;;;;5068568;28;20264;-71
2022/05/12 07:48:22;;;;;;;9.73;7.13;;;22.50;99.90;24.00;96973.00;;;;5067843;28;20199;-70
2022/05/12 07:51:11;;;;;;;8.23;6.30;;;22.50;99.90;24.30;96970.00;;;;5068707;28;20200;-69
2022/05/12 07:54:00;;;;;;;14.33;6.93;;;22.70;99.90;24.30;96973.00;;;;5068302;28;20211;-70
2022/05/12 07:56:50;;;;;;;6.23;5.60;;;22.80;99.90;24.80;96973.00;;;;5073234;28;20219;-61
2022/05/12 07:59:39;;;;;;;7.53;5.73;;;23.00;99.90;25.00;96974.00;;;;5060314;28;20200;-61
2022/05/12 08:02:28;;;;;;;8.90;5.60;;;23.30;99.90;25.20;96974.00;;;;5071421;28;20711;-63
2022/05/12 08:05:17;;;;;;;13.67;7.60;;;23.50;99.90;25.60;96968.00;;;;5066040;28;20213;-64
2022/05/12 08:08:09;;;;;;;8.93;5.83;;;23.70;99.90;25.70;96963.00;;;;5059682;28;20205;-65
2022/05/12 08:10:58;;;;;;;7.77;5.50;;;23.90;99.50;25.80;96966.00;;;;5067054;28;20215;-64
2022/05/12 08:13:48;;;;;;;10.23;6.90;;;24.10;98.30;26.10;96961.00;;;;5063009;28;20196;-65
2022/05/12 08:16:38;;;;;;;9.03;5.87;;;24.30;97.30;26.10;96967.00;;;;5061604;28;20215;-67
2022/05/12 08:19:28;;;;;;;8.47;6.00;;;24.50;96.90;26.40;96972.00;;;;5065670;28;20193;-66
2022/05/12 08:22:17;;;;;;;9.27;5.50;;;24.60;96.40;26.50;96966.00;;;;5053609;28;20229;-66
2022/05/12 08:25:09;;;;;;;10.60;6.10;;;24.80;95.30;26.60;96965.00;;;;5067784;28;20703;-65
2022/05/12 08:27:58;;;;;;;9.10;5.03;;;24.90;94.80;26.70;96965.00;;;;5058583;28;20217;-66
2022/05/12 08:30:50;;;;;;;8.67;5.33;;;25.10;93.00;27.10;96960.00;;;;5058502;28;20582;-65
2022/05/12 08:33:39;;;;;;;6.27;5.33;;;25.20;93.10;26.90;96956.00;;;;5066102;28;20212;-66
2022/05/12 08:36:28;;;;;;;8.60;5.03;;;25.40;92.00;27.40;96960.00;;;;5063708;28;20205;-66
2022/05/12 08:39:17;;;;;;;5.23;4.73;;;25.60;91.00;27.40;96958.00;;;;5071876;28;20208;-66
2022/05/12 08:42:15;;;;;;;8.53;4.90;;;25.80;90.50;28.00;96953.00;;;;5071913;28;20222;-65
2022/05/12 08:45:07;;;;;;;5.27;4.67;;;26.00;87.60;28.10;96959.00;;;;5071750;28;20206;-66
2022/05/12 08:48:00;;;;;;;7.27;4.33;;;26.30;87.00;28.30;96959.00;;;;5071507;28;20220;-66
2022/05/12 08:50:55;;;;;;;4.90;4.37;;;26.40;84.10;28.60;96962.00;;;;5070889;28;20208;-66
2022/05/12 08:53:51;;;;;;;5.63;4.43;;;26.60;81.10;28.90;96965.00;;;;5064153;28;20201;-66
2022/05/12 08:56:40;;;;;;;5.80;4.80;;;26.80;80.30;29.00;96957.00;;;;5064212;28;20601;-65
2022/05/12 08:59:30;;;;;;;4.50;4.03;;;27.00;78.80;29.30;96966.00;;;;5070907;28;20206;-66
2022/05/12 09:02:26;;;;;;;7.13;4.40;;;27.20;77.90;29.00;96959.00;;;;5070430;28;20249;-66
2022/05/12 09:05:21;;;;;;;15.90;4.67;;;27.30;71.90;29.50;96964.00;;;;5060114;28;20205;-66
2022/05/12 09:08:26;;;;;;;6.53;4.80;;;27.50;73.00;29.80;96958.00;;;;5068646;28;20211;-67
2022/05/12 09:11:22;;;;;;;7.20;4.37;;;27.70;74.20;29.90;96963.00;;;;5065029;28;20207;-66
2022/05/12 09:14:17;;;;;;;4.47;4.07;;;27.90;73.70;30.30;96962.00;;;;5066513;28;20203;-66
2022/05/12 09:17:06;;;;;;;4.83;4.23;;;28.10;73.30;30.00;96964.00;;;;5053178;28;20202;-65
2022/05/12 09:19:55;;;;;;;4.63;4.00;;;28.30;68.70;30.20;96957.00;;;;5062257;28;20206;-65
2022/05/12 09:22:46;;;;;;;6.80;4.50;;;28.40;67.00;30.70;96961.00;;;;5067756;28;20230;-66
2022/05/12 09:25:44;;;;;;;5.77;4.63;;;28.50;67.00;31.10;96957.00;;;;5051381;28;20203;-66
2022/05/12 09:28:36;;;;;;;7.57;4.50;;;28.80;67.90;31.20;96951.00;;;;5060075;28;20214;-67
2022/05/12 09:31:25;;;;;;;4.83;3.60;;;29.10;65.30;31.40;96952.00;;;;5069810;28;20230;-69
2022/05/12 09:34:29;;;;;;;3.30;3.00;;;29.30;63.00;31.50;96956.00;;;;5066407;28;20220;-68
2022/05/12 09:37:21;;;;;;;3.10;2.80;;;29.40;59.70;31.40;96966.00;;;;5059627;28;20216;-70
2022/05/12 09:40:39;;;;;;;5.43;3.20;;;29.50;57.90;30.90;96970.00;;;;5066294;28;20583;-70
2022/05/12 09:43:32;;;;;;;7.03;2.90;;;29.40;58.20;30.70;96960.00;;;;5067582;28;20206;-69
2022/05/12 09:46:29;;;;;;;4.97;2.83;;;29.20;56.30;31.10;96966.00;;;;5058538;28;20220;-69
2022/05/12 09:49:20;;;;;;;3.22;2.72;;;29.20;56.20;31.10;96968.00;;;;5061118;28;20211;-69
2022/05/12 09:52:29;;;;;;;3.13;2.80;;;29.30;55.90;31.70;96980.00;;;;5062394;28;20227;-68
2022/05/12 09:55:23;;;;;;;5.55;2.90;;;29.40;56.00;31.80;96967.00;;;;5068341;28;20564;-68
2022/05/12 10:01:20;;;;;;;2.70;2.50;;;29.60;56.00;31.90;96961.00;;;;5084783;28;21039;-69
2022/05/12 10:10:38;;;;;;;2.70;2.45;;;30.40;54.50;32.80;96961.00;;;;5080007;28;20208;-70
2022/05/12 10:13:37;;;;;;;4.00;2.92;;;30.70;53.40;33.20;96954.00;;;;5080503;28;20203;-69
2022/05/12 10:16:31;;;;;;;7.82;3.15;;;30.90;52.50;32.90;96948.00;;;;5087836;28;20228;-70
2022/05/12 10:19:22;;;;;;;2.88;2.40;;;31.00;52.20;32.30;96949.00;;;;5082589;28;20221;-66
2022/05/12 10:22:18;;;;;;;2.90;2.70;;;30.90;51.20;31.90;96984.00;;;;5067807;28;20222;-67
2022/05/12 10:25:21;;;;;;;3.00;2.25;;;30.70;50.50;31.70;96981.00;;;;5079082;28;20689;-68
2022/05/12 10:28:17;;;;;;;3.92;2.83;;;30.40;49.90;31.90;96985.00;;;;5079281;28;20196;-67
2022/05/12 10:31:23;;;;;;;3.35;2.30;;;30.20;51.20;32.30;96944.00;;;;5085181;28;20205;-67
2022/05/12 10:34:34;;;;;;;3.08;2.88;;;30.30;51.30;33.00;96938.00;;;;5093820;28;20317;-67
2022/05/12 10:37:41;;;;;;;4.00;2.70;;;30.50;51.30;33.30;96965.00;;;;5081225;28;20262;-67
2022/05/12 10:40:38;;;;;;;2.75;2.55;;;30.80;53.40;33.00;96958.00;;;;5078438;28;20304;-67
2022/05/12 10:44:00;;;;;;;3.65;2.80;;;30.90;51.10;33.70;96932.00;;;;5085507;28;20217;-67
2022/05/12 10:46:58;;;;;;;4.28;2.47;;;31.20;50.90;34.30;96936.00;;;;5084585;28;20580;-68
2022/05/12 10:50:00;;;;;;;8.45;2.80;;;31.60;47.80;34.40;96940.00;;;;5082827;28;20204;-67
2022/05/12 10:53:12;;;;;;;2.85;2.55;;;31.90;47.40;35.00;96970.00;;;;5098953;28;20218;-67
2022/05/12 10:56:13;;;;;;;3.20;2.35;;;32.50;48.40;35.40;96918.00;;;;5074939;28;20712;-68
2022/05/12 10:59:43;;;;;;;2.97;2.75;;;32.60;49.00;34.40;96959.00;;;;5077925;28;20217;-68
2022/05/12 11:02:42;;;;;;;3.17;2.80;;;32.70;45.60;35.00;96915.00;;;;5076320;28;20238;-68
2022/05/12 11:05:37;;;;;;;4.57;3.00;;;32.70;46.80;35.20;96940.00;;;;5082560;28;20199;-68
2022/05/12 11:08:34;;;;;;;2.67;2.47;;;33.00;48.40;33.40;96918.00;;;;5059026;28;20206;-70
2022/05/12 11:11:27;;;;;;;2.88;2.67;;;33.00;44.80;34.30;96905.00;;;;5077211;28;20234;-70
2022/05/12 11:14:22;;;;;;;5.25;2.80;;;32.80;44.50;33.10;96952.00;;;;5070040;28;20215;-70
2022/05/12 11:17:19;;;;;;;3.45;2.97;;;32.50;45.40;33.10;96965.00;;;;5063230;28;20211;-70
2022/05/12 11:20:23;;;;;;;3.92;2.40;;;32.20;45.90;32.80;96961.00;;;;5060302;28;20227;-70
2022/05/12 11:23:27;;;;;;;3.90;2.60;;;31.70;46.80;32.80;96973.00;;;;5074804;28;20219;-70
2022/05/12 11:26:47;;;;;;;2.85;2.50;;;31.40;48.00;32.60;96974.00;;;;5065383;28;20230;-70
2022/05/12 11:29:52;;;;;;;3.20;2.55;;;31.20;49.00;32.00;96973.00;;;;5070664;28;20194;-71
2022/05/12 11:32:54;;;;;;;4.28;3.20;;;30.90;47.90;31.00;96975.00;;;;5080092;28;20212;-69
2022/05/12 11:35:48;;;;;;;5.70;3.30;;;30.50;47.60;31.80;96901.00;;;;5072763;28;20273;-70
2022/05/12 11:38:53;;;;;;;4.53;2.97;;;30.40;47.30;33.80;96903.00;;;;5059896;28;20206;-70
2022/05/12 11:41:43;;;;;;;2.83;2.58;;;30.90;46.90;35.00;96957.00;;;;5050466;28;20235;-69
2022/05/12 11:44:39;;;;;;;7.57;4.18;;;31.60;48.60;34.70;96952.00;;;;5062066;28;20202;-68
2022/05/12 11:48:05;;;;;;;3.67;3.20;;;31.90;50.20;35.30;96890.00;;;;5062586;28;20207;-69
2022/05/12 11:51:08;;;;;;;6.43;4.15;;;32.40;51.30;34.60;96890.00;;;;5060921;28;20403;-69
2022/05/12 11:54:05;;;;;;;3.83;3.42;;;32.70;48.70;32.50;96879.00;;;;5071639;28;20218;-70
2022/05/12 11:56:56;;;;;;;7.28;4.25;;;32.60;48.60;31.10;96943.00;;;;5069526;28;20217;-72
2022/05/12 11:59:49;;;;;;;6.47;3.90;;;31.50;48.70;29.60;96932.00;;;;5070808;28;20214;-77
2022/05/12 12:02:50;;;;;;;5.03;4.22;;;30.40;50.30;30.10;96879.00;;;;5070999;28;20640;-71
2022/05/12 12:06:03;;;;;;;5.07;4.05;;;29.80;51.30;30.60;96851.00;;;;5070954;28;20204;-74
2022/05/12 12:08:55;;;;;;;4.28;3.88;;;29.80;51.40;31.20;96863.00;;;;5068517;28;20587;-69
2022/05/12 12:11:46;;;;;;;4.07;3.77;;;29.90;50.40;31.20;96862.00;;;;5077797;28;20237;-70
2022/05/12 12:14:57;;;;;;;5.43;4.05;;;30.10;51.20;31.60;96865.00;;;;5069120;28;20219;-75
2022/05/12 12:17:46;;;;;;;9.13;4.25;;;30.20;51.40;32.10;96858.00;;;;5060742;28;20194;-70
2022/05/12 12:20:50;;;;;;;4.43;3.53;;;30.50;51.50;32.60;96858.00;;;;5064298;28;20220;-65
2022/05/12 12:23:40;;;;;;;3.88;3.58;;;30.80;51.00;33.90;96863.00;;;;5069277;28;20205;-67
2022/05/12 12:26:36;;;;;;;7.28;3.97;;;31.30;50.50;34.10;96857.00;;;;5070271;28;20217;-69
2022/05/12 12:29:44;;;;;;;4.35;3.88;;;31.80;49.80;34.80;96853.00;;;;5086489;28;20577;-71
2022/05/12 12:32:35;;;;;;;6.18;3.50;;;32.50;49.40;35.50;96848.00;;;;5089703;28;20279;-70
2022/05/12 12:35:28;;;;;;;3.40;3.10;;;33.00;48.80;36.70;96851.00;;;;5084420;28;20288;-71
2022/05/12 12:39:08;;;;;;;5.03;3.33;;;33.60;49.40;35.30;96880.00;;;;5089317;28;20263;-71
2022/05/12 12:42:14;;;;;;;3.83;2.80;;;34.20;46.20;32.80;96862.00;;;;5090234;28;20608;-72
2022/05/12 12:45:12;;;;;;;3.35;3.10;;;33.10;45.50;31.70;96832.00;;;;5088864;28;20199;-61
2022/05/12 12:48:09;;;;;;;3.70;3.13;;;32.10;44.90;31.80;96864.00;;;;5086941;28;20221;-71
2022/05/12 12:50:58;;;;;;;6.35;3.42;;;31.60;46.90;32.20;96844.00;;;;5082561;28;20753;-75
2022/05/12 12:56:50;;;;;;;3.50;3.20;;;31.20;47.70;32.10;96922.00;;;;5060834;28;20581;-68
2022/05/12 12:59:50;;;;;;;9.32;3.40;;;30.90;49.10;30.00;96921.00;;;;5087816;28;20217;-74
2022/05/12 13:02:44;;;;;;;5.30;3.03;;;30.20;47.60;29.70;96917.00;;;;5085379;28;20228;-74
2022/05/12 13:05:36;;;;;;;3.60;3.30;;;29.60;48.90;29.20;96932.00;;;;5084028;28;20201;-70